createdAt,value
2022-08-17T00:02:56.342Z,8.07
2022-08-17T00:05:25.111Z,9.90
2022-08-17T00:07:52.930Z,10.95
2022-08-17T00:10:20.890Z,6.90
2022-08-17T00:12:49.036Z,11.55
2022-08-17T00:15:17.923Z,6.90
2022-08-17T00:20:18.692Z,8.00
2022-08-17T00:25:20.782Z,9.25
2022-08-17T00:27:48.791Z,11.07
2022-08-17T00:30:16.725Z,7.80
2022-08-17T00:40:44.586Z,5.95
2022-08-17T00:45:47.428Z,6.47
2022-08-17T00:48:29.953Z,7.82
2022-08-17T00:51:06.685Z,8.15
2022-08-17T00:53:41.950Z,12.18
2022-08-17T00:58:42.867Z,8.07
2022-08-17T01:01:12.473Z,9.70
2022-08-17T01:03:49.659Z,6.10
2022-08-17T01:08:47.601Z,10.93
2022-08-17T01:11:15.507Z,8.77
2022-08-17T01:13:45.073Z,11.75
2022-08-17T01:18:48.755Z,8.38
2022-08-17T01:21:23.488Z,8.30
2022-08-17T01:23:52.724Z,7.53
2022-08-17T01:26:21.384Z,10.02
2022-08-17T01:31:24.713Z,6.32
2022-08-17T01:33:52.578Z,7.85
2022-08-17T01:36:20.488Z,9.82
2022-08-17T01:38:48.320Z,6.72
2022-08-17T01:41:18.544Z,12.20
2022-08-17T01:43:50.773Z,8.82
2022-08-17T01:46:23.711Z,6.20
2022-08-17T01:48:51.727Z,9.90
2022-08-17T01:51:20.581Z,9.15
2022-08-17T01:53:52.392Z,10.57
2022-08-17T01:56:24.419Z,8.73
2022-08-17T01:58:52.626Z,9.18
2022-08-17T02:01:22.996Z,7.80
2022-08-17T02:03:53.438Z,7.78
2022-08-17T02:06:28.486Z,11.75
2022-08-17T02:09:03.244Z,8.90
2022-08-17T02:11:34.654Z,8.75
2022-08-17T02:14:04.123Z,7.57
2022-08-17T02:19:07.193Z,8.88
2022-08-17T02:21:35.106Z,7.75
2022-08-17T02:24:03.485Z,8.30
2022-08-17T02:26:33.180Z,8.05
2022-08-17T02:29:01.062Z,6.35
2022-08-17T02:31:31.156Z,6.38
2022-08-17T02:34:04.093Z,11.10
2022-08-17T02:36:35.251Z,10.60
2022-08-17T02:39:03.712Z,10.93
2022-08-17T02:41:33.107Z,10.80
2022-08-17T02:44:01.205Z,10.70
2022-08-17T02:46:31.114Z,9.93
2022-08-17T02:48:59.040Z,9.30
2022-08-17T02:51:27.640Z,10.60
2022-08-17T02:54:38.853Z,7.00
2022-08-17T02:56:45.101Z,6.40
2022-08-17T02:59:12.964Z,12.40
2022-08-17T03:01:40.988Z,9.38
2022-08-17T03:04:09.148Z,8.27
2022-08-17T03:06:37.492Z,7.25
2022-08-17T03:09:05.664Z,10.05
2022-08-17T03:11:33.525Z,11.00
2022-08-17T03:14:02.710Z,10.07
2022-08-17T03:16:30.538Z,10.55
2022-08-17T03:18:58.390Z,11.93
2022-08-17T03:21:26.221Z,9.23
2022-08-17T03:23:54.699Z,12.02
2022-08-17T03:28:50.575Z,10.93
2022-08-17T03:31:21.482Z,11.10
2022-08-17T03:33:49.511Z,9.35
2022-08-17T03:36:17.586Z,11.70
2022-08-17T03:38:45.413Z,10.55
2022-08-17T03:41:14.027Z,9.75
2022-08-17T03:43:41.876Z,9.48
2022-08-17T03:46:35.319Z,12.32
2022-08-17T03:49:23.875Z,10.50
2022-08-17T03:52:09.592Z,10.55
2022-08-17T03:54:55.714Z,11.80
2022-08-17T03:57:23.966Z,9.48
2022-08-17T03:59:52.216Z,11.55
2022-08-17T04:02:23.112Z,9.18
2022-08-17T04:04:52.703Z,8.65
2022-08-17T04:07:21.257Z,7.68
2022-08-17T04:09:49.873Z,8.65
2022-08-17T04:12:19.709Z,8.85
2022-08-17T04:14:53.187Z,13.70
2022-08-17T04:17:24.305Z,12.55
2022-08-17T04:19:54.543Z,10.82
2022-08-17T04:22:31.205Z,13.30
2022-08-17T04:25:05.267Z,11.02
2022-08-17T04:27:33.355Z,11.82
2022-08-17T04:30:01.299Z,9.73
2022-08-17T04:33:04.896Z,9.57
2022-08-17T04:35:22.016Z,11.13
2022-08-17T04:37:50.280Z,11.50
2022-08-17T04:40:44.944Z,14.07
2022-08-17T04:43:14.414Z,11.23
2022-08-17T04:45:55.507Z,9.05
2022-08-17T04:48:29.702Z,12.38
2022-08-17T04:51:09.849Z,11.18
2022-08-17T04:53:39.019Z,13.00
2022-08-17T04:56:07.497Z,13.73
2022-08-17T04:58:39.995Z,12.55
2022-08-17T05:01:08.514Z,15.80
2022-08-17T05:03:36.556Z,11.15
2022-08-17T05:06:06.105Z,9.55
2022-08-17T05:08:34.039Z,10.90
2022-08-17T05:11:01.924Z,8.40
2022-08-17T05:13:30.348Z,8.82
2022-08-17T05:16:00.035Z,11.05
2022-08-17T05:18:29.572Z,10.57
2022-08-17T05:20:57.487Z,10.55
2022-08-17T05:23:29.229Z,12.73
2022-08-17T05:26:12.489Z,11.55
2022-08-17T05:28:53.815Z,10.32
2022-08-17T05:31:22.102Z,9.98
2022-08-17T05:33:50.042Z,11.48
2022-08-17T05:36:41.553Z,9.63
2022-08-17T05:39:07.622Z,11.10
2022-08-17T05:41:35.528Z,12.02
2022-08-17T05:44:05.463Z,14.48
2022-08-17T05:46:41.016Z,16.02
2022-08-17T05:49:09.714Z,12.52
2022-08-17T05:52:02.346Z,13.07
2022-08-17T05:54:42.475Z,11.65
2022-08-17T05:57:30.537Z,13.63
2022-08-17T06:00:07.270Z,12.10
2022-08-17T06:02:51.333Z,14.43
2022-08-17T06:05:34.269Z,16.20
2022-08-17T06:08:10.900Z,15.38
2022-08-17T06:10:48.261Z,14.05
2022-08-17T06:13:22.649Z,14.10
2022-08-17T06:15:57.646Z,14.70
2022-08-17T06:18:30.245Z,13.80
2022-08-17T06:21:02.866Z,13.48
2022-08-17T06:23:35.559Z,19.55
2022-08-17T06:26:16.201Z,12.10
2022-08-17T06:28:52.161Z,12.02
2022-08-17T06:31:23.135Z,13.82
2022-08-17T06:33:51.533Z,12.32
2022-08-17T06:36:31.553Z,11.23
2022-08-17T06:39:09.120Z,12.40
2022-08-17T06:41:49.510Z,10.63
2022-08-17T06:44:42.280Z,11.43
2022-08-17T06:47:28.681Z,17.58
2022-08-17T06:52:46.026Z,9.63
2022-08-17T06:55:21.425Z,13.10
2022-08-17T06:57:54.455Z,10.68
2022-08-17T07:00:25.020Z,13.85
2022-08-17T07:02:58.852Z,12.02
2022-08-17T07:10:42.701Z,8.88
2022-08-17T07:13:39.146Z,9.25
2022-08-17T07:16:18.247Z,9.98
2022-08-17T07:18:46.947Z,10.70
2022-08-17T07:21:27.336Z,17.77
2022-08-17T07:24:30.292Z,9.32
2022-08-17T07:27:07.587Z,9.07
2022-08-17T07:29:41.002Z,9.00
2022-08-17T07:32:11.101Z,8.85
2022-08-17T07:35:01.679Z,8.13
2022-08-17T07:37:32.358Z,10.73
2022-08-17T07:40:15.503Z,8.25
2022-08-17T07:42:46.631Z,9.75
2022-08-17T07:45:30.311Z,7.22
2022-08-17T07:48:15.878Z,9.27
2022-08-17T07:50:46.116Z,6.25
2022-08-17T07:53:19.531Z,9.25
2022-08-17T07:58:18.403Z,9.52
2022-08-17T08:03:34.118Z,9.15
2022-08-17T08:06:03.791Z,5.93
2022-08-17T08:08:35.114Z,8.18
2022-08-17T08:11:07.776Z,7.32
2022-08-17T08:13:40.474Z,7.00
2022-08-17T08:19:01.195Z,5.95
2022-08-17T08:26:57.763Z,5.45
2022-08-17T08:29:34.001Z,8.82
2022-08-17T08:35:01.386Z,6.82
2022-08-17T08:37:43.556Z,6.95
2022-08-17T08:40:29.902Z,8.35
2022-08-17T08:43:09.359Z,6.80
2022-08-17T08:45:45.800Z,7.82
2022-08-17T08:51:27.704Z,6.15
2022-08-17T08:54:02.580Z,8.43
2022-08-17T08:56:38.354Z,6.63
2022-08-17T08:59:17.900Z,6.47
2022-08-17T09:05:12.873Z,6.57
2022-08-17T09:07:43.617Z,5.78
2022-08-17T09:10:19.596Z,5.20
2022-08-17T09:12:56.417Z,10.50
2022-08-17T09:28:38.397Z,7.03
2022-08-17T09:33:45.348Z,5.43
2022-08-17T09:41:34.438Z,6.35
2022-08-17T09:49:32.031Z,4.13
2022-08-17T09:52:04.622Z,4.25
2022-08-17T09:57:31.729Z,4.28
2022-08-17T10:00:13.636Z,4.18
2022-08-17T10:10:56.715Z,3.63
2022-08-17T10:13:35.489Z,5.93
2022-08-17T10:32:23.867Z,7.63
2022-08-17T10:40:53.139Z,5.25
2022-08-17T10:43:32.982Z,4.88
2022-08-17T10:49:25.699Z,4.45
2022-08-17T10:51:55.751Z,4.90
2022-08-17T11:08:31.397Z,5.93
2022-08-17T11:16:43.125Z,9.25
2022-08-17T11:30:36.048Z,9.93
2022-08-17T11:38:58.951Z,7.65
2022-08-17T11:41:37.257Z,4.72
2022-08-17T11:47:28.812Z,4.55
2022-08-17T11:50:31.907Z,4.70
2022-08-17T11:52:59.765Z,7.15
2022-08-17T12:03:54.440Z,4.63
2022-08-17T12:06:36.237Z,9.43
2022-08-17T12:11:56.359Z,5.00
2022-08-17T12:15:08.509Z,5.45
2022-08-17T12:20:16.339Z,5.95
2022-08-17T12:25:33.037Z,3.63
2022-08-17T12:28:04.987Z,5.35
2022-08-17T12:33:03.966Z,8.10
2022-08-17T12:38:28.177Z,4.90
2022-08-17T12:43:32.811Z,7.00
2022-08-17T12:46:15.210Z,3.67
2022-08-17T12:48:59.344Z,3.40
2022-08-17T12:51:30.056Z,4.03
2022-08-17T12:53:58.082Z,4.38
2022-08-17T12:56:26.052Z,4.55
2022-08-17T12:58:55.673Z,4.68
2022-08-17T13:01:25.227Z,6.50
2022-08-17T13:03:59.744Z,5.18
2022-08-17T13:06:31.559Z,4.82
2022-08-17T13:09:10.743Z,5.10
2022-08-17T13:11:48.691Z,3.35
2022-08-17T13:14:18.479Z,5.50
2022-08-17T13:22:13.449Z,9.98
2022-08-17T13:24:54.523Z,6.00
2022-08-17T13:29:55.868Z,4.30
2022-08-17T13:32:34.974Z,5.25
2022-08-17T13:35:12.031Z,5.18
2022-08-17T13:37:58.768Z,7.30
2022-08-17T13:40:31.337Z,5.93
2022-08-17T13:42:59.605Z,4.80
2022-08-17T13:45:44.804Z,5.07
2022-08-17T13:48:20.892Z,8.32
2022-08-17T13:51:04.130Z,11.70
2022-08-17T13:53:50.539Z,5.25
2022-08-17T13:56:38.806Z,6.32
2022-08-17T13:59:11.669Z,5.25
2022-08-17T14:01:42.571Z,3.97
2022-08-17T14:04:12.975Z,4.18
2022-08-17T14:06:52.251Z,5.90
2022-08-17T14:09:26.677Z,5.15
2022-08-17T14:11:55.986Z,6.15
2022-08-17T14:14:24.498Z,3.72
2022-08-17T14:19:22.119Z,4.15
2022-08-17T14:24:25.354Z,5.07
2022-08-17T14:26:53.943Z,5.50
2022-08-17T14:29:22.474Z,5.70
2022-08-17T14:34:22.022Z,5.88
2022-08-17T14:46:46.468Z,4.35
2022-08-17T14:49:15.662Z,4.40
2022-08-17T14:51:44.018Z,7.13
2022-08-17T14:54:32.977Z,4.20
2022-08-17T14:59:53.409Z,6.93
2022-08-17T15:05:00.884Z,4.72
2022-08-17T15:07:31.092Z,4.75
2022-08-17T15:10:00.868Z,4.75
2022-08-17T15:15:04.700Z,4.68
2022-08-17T15:17:44.430Z,6.47
2022-08-17T15:20:15.984Z,6.95
2022-08-17T15:22:45.346Z,4.30
2022-08-17T15:27:44.923Z,5.55
2022-08-17T15:30:13.822Z,4.60
2022-08-17T15:32:50.773Z,4.35
2022-08-17T15:37:55.917Z,7.20
2022-08-17T15:42:53.099Z,5.30
2022-08-17T15:47:55.020Z,8.88
2022-08-17T15:52:57.974Z,4.55
2022-08-17T15:55:27.726Z,4.07
2022-08-17T16:35:47.238Z,4.45
2022-08-17T16:53:11.374Z,13.27
2022-08-17T16:55:39.954Z,4.10
2022-08-17T17:08:39.480Z,4.45
2022-08-17T17:24:17.198Z,6.60
2022-08-17T17:27:12.270Z,5.55
2022-08-17T17:32:32.428Z,5.07
2022-08-17T17:35:08.015Z,7.03
2022-08-17T17:37:36.736Z,10.52
2022-08-17T17:40:10.541Z,7.05
2022-08-17T17:42:41.848Z,8.73
2022-08-17T17:45:17.594Z,6.47
2022-08-17T17:50:17.944Z,9.95
2022-08-17T17:53:00.024Z,10.80
2022-08-17T17:58:20.013Z,7.22
2022-08-17T18:00:55.258Z,6.95
2022-08-17T18:03:35.632Z,7.38
2022-08-17T18:06:20.042Z,11.82
2022-08-17T18:11:51.660Z,7.88
2022-08-17T18:14:33.580Z,10.30
2022-08-17T18:17:02.183Z,6.07
2022-08-17T18:19:31.585Z,8.82
2022-08-17T18:22:08.500Z,7.95
2022-08-17T18:24:44.786Z,6.57
2022-08-17T18:27:23.305Z,6.53
2022-08-17T18:29:53.983Z,6.13
2022-08-17T18:32:35.357Z,6.72
2022-08-17T18:38:20.363Z,11.70
2022-08-17T18:43:36.527Z,10.82
2022-08-17T18:46:28.313Z,7.65
2022-08-17T18:48:59.504Z,7.38
2022-08-17T18:51:42.383Z,7.40
2022-08-17T18:54:20.008Z,6.35
2022-08-17T18:56:54.631Z,10.35
2022-08-17T19:02:23.207Z,8.23
2022-08-17T19:05:13.444Z,8.82
2022-08-17T19:10:25.079Z,11.15
2022-08-17T19:13:00.207Z,7.50
2022-08-17T19:15:36.120Z,8.07
2022-08-17T19:18:15.453Z,12.02
2022-08-17T19:23:23.316Z,11.80
2022-08-17T19:25:58.676Z,6.50
2022-08-17T19:28:31.033Z,11.90
2022-08-17T19:31:06.114Z,8.02
2022-08-17T19:33:34.109Z,8.65
2022-08-17T19:36:08.484Z,7.18
2022-08-17T19:38:44.984Z,7.50
2022-08-17T19:44:12.895Z,11.23
2022-08-17T19:46:48.575Z,7.00
2022-08-17T19:49:33.521Z,8.30
2022-08-17T19:52:26.101Z,10.43
2022-08-17T19:57:42.470Z,12.45
2022-08-17T20:00:13.378Z,9.57
2022-08-17T20:02:49.715Z,5.43
2022-08-17T20:05:25.978Z,7.07
2022-08-17T20:07:58.480Z,8.43
2022-08-17T20:10:40.391Z,11.35
2022-08-17T20:13:16.114Z,6.50
2022-08-17T20:15:46.259Z,8.55
2022-08-17T20:18:23.320Z,9.60
2022-08-17T20:26:19.306Z,8.07
2022-08-17T20:29:20.706Z,9.27
2022-08-17T20:32:25.578Z,7.10
2022-08-17T20:35:20.829Z,8.48
2022-08-17T20:37:55.108Z,12.75
2022-08-17T20:40:27.377Z,7.20
2022-08-17T20:42:55.294Z,7.38
2022-08-17T20:48:38.045Z,9.27
2022-08-17T20:51:27.235Z,11.40
2022-08-17T20:54:36.984Z,6.82
2022-08-17T20:57:06.766Z,8.20
2022-08-17T21:00:07.533Z,8.40
2022-08-17T21:02:38.144Z,8.10
2022-08-17T21:05:32.386Z,12.23
2022-08-17T21:08:14.262Z,12.55
2022-08-17T21:13:45.076Z,8.52
2022-08-17T21:16:37.206Z,7.88
2022-08-17T21:19:22.143Z,6.22
2022-08-17T21:22:01.254Z,11.90
2022-08-17T21:24:41.959Z,8.40
2022-08-17T21:27:27.268Z,9.52
2022-08-17T21:30:21.956Z,8.57
2022-08-17T21:33:16.035Z,8.23
2022-08-17T21:35:51.192Z,9.15
2022-08-17T21:40:51.784Z,11.13
2022-08-17T21:43:26.654Z,9.00
2022-08-17T21:46:01.790Z,9.13
2022-08-17T21:48:32.414Z,9.82
2022-08-17T21:51:10.508Z,6.47
2022-08-17T21:53:44.229Z,7.57
2022-08-17T21:56:14.166Z,7.20
2022-08-17T21:58:48.402Z,11.02
2022-08-17T22:06:34.513Z,7.47
2022-08-17T22:14:26.067Z,7.88
2022-08-17T22:22:56.902Z,8.52
2022-08-17T22:30:33.096Z,9.82
2022-08-17T22:33:02.948Z,9.25
2022-08-17T22:35:36.847Z,9.43
2022-08-17T22:38:33.450Z,7.80
2022-08-17T22:41:22.834Z,12.95
2022-08-17T22:43:52.061Z,10.25
2022-08-17T22:46:22.244Z,7.68
2022-08-17T22:51:23.239Z,7.75
2022-08-17T22:54:13.393Z,7.97
2022-08-17T22:59:46.185Z,7.45
2022-08-17T23:02:21.748Z,8.77
2022-08-17T23:04:52.792Z,10.95
2022-08-17T23:07:21.783Z,10.23
2022-08-17T23:09:52.810Z,8.43
2022-08-17T23:15:00.671Z,7.65
2022-08-17T23:17:33.880Z,6.75
2022-08-17T23:20:06.154Z,9.48
2022-08-17T23:25:03.711Z,8.02
2022-08-17T23:27:31.898Z,9.77
2022-08-17T23:29:59.957Z,7.60
2022-08-17T23:32:28.450Z,15.25
2022-08-17T23:34:59.173Z,6.40
2022-08-17T23:37:28.478Z,7.43
2022-08-17T23:39:56.296Z,7.45
2022-08-17T23:42:25.544Z,7.30
2022-08-17T23:44:53.379Z,5.70
2022-08-17T23:49:49.568Z,9.40
2022-08-17T23:52:22.753Z,7.13
2022-08-17T23:54:50.635Z,8.32
2022-08-17T23:57:20.611Z,6.07
